sensor_id;sensor_type;location;lat;lon;timestamp;pressure;altitude;pressure_sealevel;temperature;humidity
53858;BME280;39763;51.188;6.690;2022-09-27T00:01:26;99260.91;;;11.75;88.56
53858;BME280;39763;51.188;6.690;2022-09-27T00:02:59;99259.16;;;11.76;88.39
53858;BME280;39763;51.188;6.690;2022-09-27T00:04:31;99262.72;;;11.75;88.18
53858;BME280;39763;51.188;6.690;2022-09-27T00:06:03;99260.91;;;11.75;87.71
53858;BME280;39763;51.188;6.690;2022-09-27T00:07:35;99260.03;;;11.76;88.41
53858;BME280;39763;51.188;6.690;2022-09-27T00:09:07;99270.59;;;11.75;87.62
53858;BME280;39763;51.188;6.690;2022-09-27T00:10:39;99268.56;;;11.80;88.11
53858;BME280;39763;51.188;6.690;2022-09-27T00:12:11;99262.19;;;11.84;87.38
53858;BME280;39763;51.188;6.690;2022-09-27T00:13:43;99267.53;;;11.82;87.54
53858;BME280;39763;51.188;6.690;2022-09-27T00:15:15;99275.03;;;11.88;87.85
53858;BME280;39763;51.188;6.690;2022-09-27T00:16:48;99267.81;;;11.92;87.43
53858;BME280;39763;51.188;6.690;2022-09-27T00:18:20;99266.88;;;11.93;87.43
53858;BME280;39763;51.188;6.690;2022-09-27T00:19:51;99272.13;;;11.93;87.67
53858;BME280;39763;51.188;6.690;2022-09-27T00:21:23;99270.44;;;11.92;86.93
53858;BME280;39763;51.188;6.690;2022-09-27T00:22:54;99279.19;;;11.92;86.96
53858;BME280;39763;51.188;6.690;2022-09-27T00:24:26;99278.53;;;11.89;87.29
53858;BME280;39763;51.188;6.690;2022-09-27T00:25:58;99279.84;;;11.96;87.47
53858;BME280;39763;51.188;6.690;2022-09-27T00:27:29;99280.69;;;11.96;87.19
53858;BME280;39763;51.188;6.690;2022-09-27T00:29:01;99274.19;;;12.02;87.29
53858;BME280;39763;51.188;6.690;2022-09-27T00:30:33;99281.53;;;11.97;86.95
53858;BME280;39763;51.188;6.690;2022-09-27T00:32:06;99277.03;;;11.99;86.78
53858;BME280;39763;51.188;6.690;2022-09-27T00:33:37;99282.06;;;12.02;86.96
53858;BME280;39763;51.188;6.690;2022-09-27T00:35:09;99278.63;;;12.02;87.40
53858;BME280;39763;51.188;6.690;2022-09-27T00:36:40;99286.31;;;12.05;86.88
53858;BME280;39763;51.188;6.690;2022-09-27T00:38:12;99298.34;;;12.09;86.60
53858;BME280;39763;51.188;6.690;2022-09-27T00:39:44;99295.63;;;12.10;87.18
53858;BME280;39763;51.188;6.690;2022-09-27T00:41:16;99282.94;;;12.17;86.37
53858;BME280;39763;51.188;6.690;2022-09-27T00:42:48;99295.97;;;12.18;86.91
53858;BME280;39763;51.188;6.690;2022-09-27T00:46:09;99291.66;;;12.17;85.82
53858;BME280;39763;51.188;6.690;2022-09-27T00:47:45;99298.16;;;12.12;85.65
53858;BME280;39763;51.188;6.690;2022-09-27T00:49:20;99288.38;;;12.14;85.48
53858;BME280;39763;51.188;6.690;2022-09-27T00:50:54;99295.81;;;12.07;85.09
53858;BME280;39763;51.188;6.690;2022-09-27T00:52:29;99292.72;;;12.00;86.01
53858;BME280;39763;51.188;6.690;2022-09-27T00:54:02;99295.72;;;11.94;86.57
53858;BME280;39763;51.188;6.690;2022-09-27T00:55:35;99285.56;;;11.88;86.45
53858;BME280;39763;51.188;6.690;2022-09-27T00:57:08;99294.69;;;11.83;86.86
53858;BME280;39763;51.188;6.690;2022-09-27T00:58:41;99293.09;;;11.80;86.80
53858;BME280;39763;51.188;6.690;2022-09-27T01:00:14;99301.75;;;11.82;86.38
53858;BME280;39763;51.188;6.690;2022-09-27T01:01:46;99297.03;;;11.87;86.88
53858;BME280;39763;51.188;6.690;2022-09-27T01:03:24;99298.94;;;11.99;86.35
53858;BME280;39763;51.188;6.690;2022-09-27T01:05:00;99290.53;;;12.07;86.63
53858;BME280;39763;51.188;6.690;2022-09-27T01:06:31;99293.94;;;12.09;85.42
53858;BME280;39763;51.188;6.690;2022-09-27T01:08:03;99294.78;;;12.10;85.11
53858;BME280;39763;51.188;6.690;2022-09-27T01:09:35;99293.75;;;12.12;85.15
53858;BME280;39763;51.188;6.690;2022-09-27T01:11:19;99301.47;;;12.15;85.43
53858;BME280;39763;51.188;6.690;2022-09-27T01:12:56;99303.34;;;12.13;84.52
53858;BME280;39763;51.188;6.690;2022-09-27T01:14:37;99311.78;;;12.18;84.54
53858;BME280;39763;51.188;6.690;2022-09-27T01:16:12;99313.00;;;12.13;84.52
53858;BME280;39763;51.188;6.690;2022-09-27T01:17:51;99301.56;;;12.14;84.89
53858;BME280;39763;51.188;6.690;2022-09-27T01:19:34;99301.47;;;12.15;84.81
53858;BME280;39763;51.188;6.690;2022-09-27T01:21:27;99305.97;;;12.13;84.84
53858;BME280;39763;51.188;6.690;2022-09-27T01:23:07;99303.34;;;12.13;84.21
53858;BME280;39763;51.188;6.690;2022-09-27T01:24:54;99304.38;;;12.11;84.66
53858;BME280;39763;51.188;6.690;2022-09-27T01:26:32;99306.44;;;12.06;84.98
53858;BME280;39763;51.188;6.690;2022-09-27T01:28:11;99307.19;;;12.08;85.24
53858;BME280;39763;51.188;6.690;2022-09-27T01:29:52;99312.94;;;12.14;85.29
53858;BME280;39763;51.188;6.690;2022-09-27T01:31:31;99312.16;;;12.12;84.95
53858;BME280;39763;51.188;6.690;2022-09-27T01:33:09;99319.31;;;12.10;84.52
53858;BME280;39763;51.188;6.690;2022-09-27T01:34:42;99305.88;;;12.15;84.34
53858;BME280;39763;51.188;6.690;2022-09-27T01:36:16;99313.69;;;12.16;84.37
53858;BME280;39763;51.188;6.690;2022-09-27T01:37:53;99318.19;;;12.00;84.47
53858;BME280;39763;51.188;6.690;2022-09-27T01:39:31;99313.28;;;11.94;85.14
53858;BME280;39763;51.188;6.690;2022-09-27T01:41:25;99312.09;;;11.85;85.31
53858;BME280;39763;51.188;6.690;2022-09-27T01:43:37;99312.25;;;11.82;86.05
53858;BME280;39763;51.188;6.690;2022-09-27T01:45:12;99314.41;;;11.90;85.54
53858;BME280;39763;51.188;6.690;2022-09-27T01:46:57;99325.34;;;11.98;85.97
53858;BME280;39763;51.188;6.690;2022-09-27T01:48:42;99320.25;;;11.95;85.68
53858;BME280;39763;51.188;6.690;2022-09-27T01:50:25;99312.34;;;11.95;85.20
53858;BME280;39763;51.188;6.690;2022-09-27T01:52:00;99308.13;;;11.92;84.83
53858;BME280;39763;51.188;6.690;2022-09-27T01:53:34;99309.16;;;12.04;85.16
53858;BME280;39763;51.188;6.690;2022-09-27T01:55:27;99316.00;;;11.92;84.86
53858;BME280;39763;51.188;6.690;2022-09-27T01:57:21;99313.19;;;11.81;84.95
53858;BME280;39763;51.188;6.690;2022-09-27T01:58:55;99324.13;;;11.74;85.58
53858;BME280;39763;51.188;6.690;2022-09-27T02:00:28;99326.88;;;11.72;86.22
53858;BME280;39763;51.188;6.690;2022-09-27T02:02:02;99321.91;;;11.68;86.00
53858;BME280;39763;51.188;6.690;2022-09-27T02:03:50;99311.56;;;11.64;87.12
53858;BME280;39763;51.188;6.690;2022-09-27T02:05:42;99322.91;;;11.65;86.37
53858;BME280;39763;51.188;6.690;2022-09-27T02:07:31;99320.97;;;11.69;86.65
53858;BME280;39763;51.188;6.690;2022-09-27T02:09:04;99322.75;;;11.68;85.98
53858;BME280;39763;51.188;6.690;2022-09-27T02:10:54;99320.56;;;11.75;85.98
53858;BME280;39763;51.188;6.690;2022-09-27T02:12:30;99317.72;;;11.79;85.73
53858;BME280;39763;51.188;6.690;2022-09-27T02:14:05;99322.88;;;11.81;85.52
53858;BME280;39763;51.188;6.690;2022-09-27T02:15:46;99321.66;;;11.86;85.21
53858;BME280;39763;51.188;6.690;2022-09-27T02:17:33;99323.91;;;11.92;84.74
53858;BME280;39763;51.188;6.690;2022-09-27T02:19:09;99318.91;;;12.02;85.32
53858;BME280;39763;51.188;6.690;2022-09-27T02:20:44;99319.59;;;12.06;84.61
53858;BME280;39763;51.188;6.690;2022-09-27T02:22:21;99315.25;;;12.05;84.34
53858;BME280;39763;51.188;6.690;2022-09-27T02:23:57;99321.94;;;12.10;83.85
53858;BME280;39763;51.188;6.690;2022-09-27T02:25:33;99324.66;;;12.09;84.07
53858;BME280;39763;51.188;6.690;2022-09-27T02:27:05;99324.94;;;12.04;83.78
53858;BME280;39763;51.188;6.690;2022-09-27T02:28:41;99329.25;;;12.05;83.83
53858;BME280;39763;51.188;6.690;2022-09-27T02:30:20;99333.97;;;12.00;83.86
53858;BME280;39763;51.188;6.690;2022-09-27T02:31:58;99335.47;;;12.04;84.43
53858;BME280;39763;51.188;6.690;2022-09-27T02:33:32;99339.69;;;12.07;83.92
53858;BME280;39763;51.188;6.690;2022-09-27T02:35:07;99338.50;;;11.98;84.00
53858;BME280;39763;51.188;6.690;2022-09-27T02:36:42;99327.56;;;11.90;84.03
53858;BME280;39763;51.188;6.690;2022-09-27T02:38:13;99343.75;;;11.84;83.97
53858;BME280;39763;51.188;6.690;2022-09-27T02:39:46;99335.09;;;11.82;84.51
53858;BME280;39763;51.188;6.690;2022-09-27T02:41:18;99340.25;;;11.83;84.56
53858;BME280;39763;51.188;6.690;2022-09-27T02:42:50;99342.13;;;11.81;83.79
53858;BME280;39763;51.188;6.690;2022-09-27T02:44:26;99338.47;;;11.84;83.83
53858;BME280;39763;51.188;6.690;2022-09-27T02:46:03;99347.13;;;11.86;83.59
53858;BME280;39763;51.188;6.690;2022-09-27T02:47:48;99343.41;;;11.74;83.33
53858;BME280;39763;51.188;6.690;2022-09-27T02:49:34;99342.09;;;11.67;83.73
53858;BME280;39763;51.188;6.690;2022-09-27T02:51:33;99351.34;;;11.58;84.09
53858;BME280;39763;51.188;6.690;2022-09-27T02:53:09;99346.38;;;11.54;84.58
53858;BME280;39763;51.188;6.690;2022-09-27T02:54:56;99348.50;;;11.47;84.80
53858;BME280;39763;51.188;6.690;2022-09-27T02:56:55;99353.38;;;11.39;85.36
53858;BME280;39763;51.188;6.690;2022-09-27T02:58:52;99359.41;;;11.41;85.34
53858;BME280;39763;51.188;6.690;2022-09-27T03:00:50;99356.47;;;11.46;85.09
53858;BME280;39763;51.188;6.690;2022-09-27T03:02:56;99359.63;;;11.52;85.15
53858;BME280;39763;51.188;6.690;2022-09-27T03:04:58;99364.03;;;11.52;84.43
53858;BME280;39763;51.188;6.690;2022-09-27T03:06:32;99359.63;;;11.52;84.77
53858;BME280;39763;51.188;6.690;2022-09-27T03:08:05;99351.31;;;11.44;84.02
53858;BME280;39763;51.188;6.690;2022-09-27T03:09:41;99356.78;;;11.41;84.41
53858;BME280;39763;51.188;6.690;2022-09-27T03:11:13;99363.91;;;11.39;84.52
53858;BME280;39763;51.188;6.690;2022-09-27T03:12:44;99363.13;;;11.37;84.08
53858;BME280;39763;51.188;6.690;2022-09-27T03:14:16;99360.75;;;11.32;84.41
53858;BME280;39763;51.188;6.690;2022-09-27T03:16:02;99364.91;;;11.37;84.24
53858;BME280;39763;51.188;6.690;2022-09-27T03:17:52;99364.06;;;11.36;84.26
53858;BME280;39763;51.188;6.690;2022-09-27T03:19:42;99364.31;;;11.31;84.39
53858;BME280;39763;51.188;6.690;2022-09-27T03:21:41;99360.09;;;11.29;84.29
53858;BME280;39763;51.188;6.690;2022-09-27T03:23:13;99362.38;;;11.35;84.47
53858;BME280;39763;51.188;6.690;2022-09-27T03:24:45;99360.75;;;11.32;83.82
53858;BME280;39763;51.188;6.690;2022-09-27T03:26:17;99362.22;;;11.38;83.97
53858;BME280;39763;51.188;6.690;2022-09-27T03:27:48;99369.63;;;11.46;83.50
53858;BME280;39763;51.188;6.690;2022-09-27T03:29:20;99362.59;;;11.46;83.32
53858;BME280;39763;51.188;6.690;2022-09-27T03:30:57;99364.88;;;11.52;82.84
53858;BME280;39763;51.188;6.690;2022-09-27T03:32:48;99367.25;;;11.57;82.50
53858;BME280;39763;51.188;6.690;2022-09-27T03:34:38;99376.53;;;11.62;82.30
53858;BME280;39763;51.188;6.690;2022-09-27T03:36:10;99366.19;;;11.59;81.88
53858;BME280;39763;51.188;6.690;2022-09-27T03:37:43;99370.44;;;11.62;81.89
53858;BME280;39763;51.188;6.690;2022-09-27T03:39:17;99368.72;;;11.61;81.86
53858;BME280;39763;51.188;6.690;2022-09-27T03:40:48;99380.47;;;11.55;81.90
53858;BME280;39763;51.188;6.690;2022-09-27T03:42:20;99370.31;;;11.49;82.50
53858;BME280;39763;51.188;6.690;2022-09-27T03:43:54;99376.31;;;11.51;81.94
53858;BME280;39763;51.188;6.690;2022-09-27T03:45:30;99369.97;;;11.55;82.03
53858;BME280;39763;51.188;6.690;2022-09-27T03:47:05;99370.13;;;11.52;82.03
53858;BME280;39763;51.188;6.690;2022-09-27T03:48:36;99369.03;;;11.56;82.25
53858;BME280;39763;51.188;6.690;2022-09-27T03:50:08;99369.97;;;11.55;81.99
53858;BME280;39763;51.188;6.690;2022-09-27T03:51:40;99366.75;;;11.50;81.92
53858;BME280;39763;51.188;6.690;2022-09-27T03:53:14;99369.19;;;11.53;82.15
53858;BME280;39763;51.188;6.690;2022-09-27T03:54:45;99367.25;;;11.57;82.11
53858;BME280;39763;51.188;6.690;2022-09-27T03:56:18;99369.50;;;11.63;81.97
53858;BME280;39763;51.188;6.690;2022-09-27T03:57:49;99366.69;;;11.66;82.16
53858;BME280;39763;51.188;6.690;2022-09-27T03:59:22;99369.22;;;11.68;81.75
53858;BME280;39763;51.188;6.690;2022-09-27T04:01:22;99369.31;;;11.66;81.55
53858;BME280;39763;51.188;6.690;2022-09-27T04:02:58;99374.84;;;11.61;81.09
53858;BME280;39763;51.188;6.690;2022-09-27T04:04:30;99372.97;;;11.63;81.48
53858;BME280;39763;51.188;6.690;2022-09-27T04:06:02;99374.56;;;11.66;81.26
53858;BME280;39763;51.188;6.690;2022-09-27T04:07:44;99370.06;;;11.68;81.21
53858;BME280;39763;51.188;6.690;2022-09-27T04:09:18;99371.44;;;11.59;80.73
53858;BME280;39763;51.188;6.690;2022-09-27T04:11:00;99369.56;;;11.61;80.89
53858;BME280;39763;51.188;6.690;2022-09-27T04:12:32;99369.97;;;11.55;80.73
53858;BME280;39763;51.188;6.690;2022-09-27T04:14:03;99382.94;;;11.43;81.26
53858;BME280;39763;51.188;6.690;2022-09-27T04:15:42;99372.88;;;11.35;81.38
53858;BME280;39763;51.188;6.690;2022-09-27T04:17:39;99363.47;;;11.31;81.81
53858;BME280;39763;51.188;6.690;2022-09-27T04:19:43;99371.53;;;11.28;81.90
53858;BME280;39763;51.188;6.690;2022-09-27T04:21:15;99370.44;;;11.32;82.18
53858;BME280;39763;51.188;6.690;2022-09-27T04:22:52;99379.66;;;11.39;81.88
53858;BME280;39763;51.188;6.690;2022-09-27T04:24:26;99381.38;;;11.40;80.92
53858;BME280;39763;51.188;6.690;2022-09-27T04:26:13;99377.69;;;11.43;81.35
53858;BME280;39763;51.188;6.690;2022-09-27T04:28:05;99374.72;;;11.49;81.30
53858;BME280;39763;51.188;6.690;2022-09-27T04:29:37;99382.16;;;11.56;80.82
53858;BME280;39763;51.188;6.690;2022-09-27T04:31:28;99380.19;;;11.60;80.41
53858;BME280;39763;51.188;6.690;2022-09-27T04:33:26;99380.47;;;11.55;79.90
53858;BME280;39763;51.188;6.690;2022-09-27T04:35:09;99384.38;;;11.48;80.39
53858;BME280;39763;51.188;6.690;2022-09-27T04:36:59;99390.16;;;11.55;80.30
53858;BME280;39763;51.188;6.690;2022-09-27T04:38:41;99386.13;;;11.63;80.44
53858;BME280;39763;51.188;6.690;2022-09-27T04:40:15;99393.66;;;11.70;80.57
53858;BME280;39763;51.188;6.690;2022-09-27T04:41:47;99389.25;;;11.70;79.87
53858;BME280;39763;51.188;6.690;2022-09-27T04:43:19;99378.44;;;11.75;80.17
53858;BME280;39763;51.188;6.690;2022-09-27T04:44:50;99393.84;;;11.66;79.18
53858;BME280;39763;51.188;6.690;2022-09-27T04:46:22;99390.91;;;11.57;79.55
53858;BME280;39763;51.188;6.690;2022-09-27T04:47:54;99391.69;;;11.43;79.64
53858;BME280;39763;51.188;6.690;2022-09-27T04:49:26;99389.41;;;11.37;80.43
53858;BME280;39763;51.188;6.690;2022-09-27T04:50:58;99396.47;;;11.37;80.76
53858;BME280;39763;51.188;6.690;2022-09-27T04:52:32;99399.00;;;11.38;80.35
53858;BME280;39763;51.188;6.690;2022-09-27T04:54:04;99392.34;;;11.47;80.25
53858;BME280;39763;51.188;6.690;2022-09-27T04:55:40;99397.94;;;11.56;80.49
53858;BME280;39763;51.188;6.690;2022-09-27T04:57:14;99402.06;;;11.60;79.80
53858;BME280;39763;51.188;6.690;2022-09-27T04:58:46;99395.88;;;11.61;79.83
53858;BME280;39763;51.188;6.690;2022-09-27T05:00:18;99388.66;;;11.65;79.55
53858;BME280;39763;51.188;6.690;2022-09-27T05:01:54;99390.28;;;11.68;79.44
53858;BME280;39763;51.188;6.690;2022-09-27T05:03:52;99397.06;;;11.72;79.39
53858;BME280;39763;51.188;6.690;2022-09-27T05:05:24;99406.13;;;11.66;79.04
53858;BME280;39763;51.188;6.690;2022-09-27T05:06:56;99405.19;;;11.67;78.91
53858;BME280;39763;51.188;6.690;2022-09-27T05:08:36;99402.56;;;11.67;79.19
53858;BME280;39763;51.188;6.690;2022-09-27T05:10:22;99404.53;;;11.63;78.51
53858;BME280;39763;51.188;6.690;2022-09-27T05:11:55;99403.59;;;11.64;78.62
53858;BME280;39763;51.188;6.690;2022-09-27T05:13:30;99411.66;;;11.61;78.59
53858;BME280;39763;51.188;6.690;2022-09-27T05:15:02;99401.81;;;11.65;78.47
53858;BME280;39763;51.188;6.690;2022-09-27T05:16:53;99407.75;;;11.69;78.61
53858;BME280;39763;51.188;6.690;2022-09-27T05:18:48;99423.34;;;11.72;78.53
53858;BME280;39763;51.188;6.690;2022-09-27T05:20:46;99421.03;;;11.51;77.81
53858;BME280;39763;51.188;6.690;2022-09-27T05:22:25;99424.75;;;11.47;78.41
53858;BME280;39763;51.188;6.690;2022-09-27T05:23:57;99435.28;;;11.47;78.56
53858;BME280;39763;51.188;6.690;2022-09-27T05:25:30;99432.22;;;11.55;78.23
53858;BME280;39763;51.188;6.690;2022-09-27T05:27:03;99429.13;;;11.62;78.35
53858;BME280;39763;51.188;6.690;2022-09-27T05:28:38;99432.25;;;11.69;77.96
53858;BME280;39763;51.188;6.690;2022-09-27T05:30:12;99432.34;;;11.68;77.72
53858;BME280;39763;51.188;6.690;2022-09-27T05:31:57;99429.47;;;11.72;78.41
53858;BME280;39763;51.188;6.690;2022-09-27T05:33:28;99436.28;;;11.75;77.74
53858;BME280;39763;51.188;6.690;2022-09-27T05:35:19;99438.47;;;11.68;77.23
53858;BME280;39763;51.188;6.690;2022-09-27T05:36:50;99434.81;;;11.71;77.87
53858;BME280;39763;51.188;6.690;2022-09-27T05:38:22;99431.97;;;11.74;77.15
53858;BME280;39763;51.188;6.690;2022-09-27T05:39:58;99440.78;;;11.73;77.02
53858;BME280;39763;51.188;6.690;2022-09-27T05:41:39;99437.44;;;11.71;76.88
53858;BME280;39763;51.188;6.690;2022-09-27T05:43:12;99445.91;;;11.76;77.36
53858;BME280;39763;51.188;6.690;2022-09-27T05:44:44;99434.19;;;11.81;76.86
53858;BME280;39763;51.188;6.690;2022-09-27T05:46:18;99444.34;;;11.87;76.80
53858;BME280;39763;51.188;6.690;2022-09-27T05:47:52;99445.19;;;11.88;76.95
53858;BME280;39763;51.188;6.690;2022-09-27T05:49:23;99437.03;;;11.92;76.87
53858;BME280;39763;51.188;6.690;2022-09-27T05:50:55;99444.75;;;11.95;76.65
53858;BME280;39763;51.188;6.690;2022-09-27T05:52:26;99447.56;;;11.92;76.26
53858;BME280;39763;51.188;6.690;2022-09-27T05:53:59;99447.09;;;11.86;76.64
53858;BME280;39763;51.188;6.690;2022-09-27T05:55:32;99450.28;;;11.91;76.98
53858;BME280;39763;51.188;6.690;2022-09-27T05:57:03;99446.44;;;11.96;75.98
53858;BME280;39763;51.188;6.690;2022-09-27T05:58:51;99446.19;;;12.01;76.12
53858;BME280;39763;51.188;6.690;2022-09-27T06:00:23;99444.28;;;12.03;75.84
53858;BME280;39763;51.188;6.690;2022-09-27T06:01:56;99437.34;;;12.02;75.98
53858;BME280;39763;51.188;6.690;2022-09-27T06:03:43;99445.97;;;12.04;76.14
53858;BME280;39763;51.188;6.690;2022-09-27T06:05:38;99436.97;;;12.08;75.20
53858;BME280;39763;51.188;6.690;2022-09-27T06:07:29;99440.38;;;12.10;75.17
53858;BME280;39763;51.188;6.690;2022-09-27T06:09:01;99435.09;;;12.10;75.20
53858;BME280;39763;51.188;6.690;2022-09-27T06:10:33;99448.09;;;12.13;74.62
53858;BME280;39763;51.188;6.690;2022-09-27T06:12:07;99443.84;;;12.11;74.85
53858;BME280;39763;51.188;6.690;2022-09-27T06:13:42;99436.63;;;12.14;75.47
53858;BME280;39763;51.188;6.690;2022-09-27T06:15:16;99438.97;;;12.19;74.72
53858;BME280;39763;51.188;6.690;2022-09-27T06:16:49;99444.91;;;12.22;74.63
53858;BME280;39763;51.188;6.690;2022-09-27T06:18:21;99449.13;;;12.25;74.44
53858;BME280;39763;51.188;6.690;2022-09-27T06:19:54;99455.25;;;12.25;74.75
53858;BME280;39763;51.188;6.690;2022-09-27T06:21:25;99451.56;;;12.14;73.74
53858;BME280;39763;51.188;6.690;2022-09-27T06:23:04;99457.75;;;11.98;74.43
53858;BME280;39763;51.188;6.690;2022-09-27T06:24:35;99458.47;;;11.86;74.70
53858;BME280;39763;51.188;6.690;2022-09-27T06:26:13;99452.53;;;11.83;75.66
53858;BME280;39763;51.188;6.690;2022-09-27T06:27:54;99466.38;;;11.71;76.16
53858;BME280;39763;51.188;6.690;2022-09-27T06:29:30;99462.47;;;11.78;77.11
53858;BME280;39763;51.188;6.690;2022-09-27T06:31:08;99462.69;;;11.89;76.98
53858;BME280;39763;51.188;6.690;2022-09-27T06:33:03;99466.66;;;11.96;76.48
53858;BME280;39763;51.188;6.690;2022-09-27T06:34:43;99464.88;;;11.96;76.66
53858;BME280;39763;51.188;6.690;2022-09-27T06:36:15;99469.13;;;11.99;76.04
53858;BME280;39763;51.188;6.690;2022-09-27T06:37:51;99471.94;;;12.10;76.98
53858;BME280;39763;51.188;6.690;2022-09-27T06:39:24;99466.50;;;12.13;76.67
53858;BME280;39763;51.188;6.690;2022-09-27T06:41:05;99460.09;;;12.17;76.65
53858;BME280;39763;51.188;6.690;2022-09-27T06:42:59;99461.34;;;12.26;75.67
53858;BME280;39763;51.188;6.690;2022-09-27T06:45:01;99463.59;;;12.32;75.41
53858;BME280;39763;51.188;6.690;2022-09-27T06:46:53;99465.88;;;12.38;75.25
53858;BME280;39763;51.188;6.690;2022-09-27T06:48:34;99471.06;;;12.40;75.14
53858;BME280;39763;51.188;6.690;2022-09-27T06:50:18;99459.41;;;12.44;75.39
53858;BME280;39763;51.188;6.690;2022-09-27T06:51:49;99471.63;;;12.45;74.65
53858;BME280;39763;51.188;6.690;2022-09-27T06:53:24;99470.69;;;12.46;74.57
53858;BME280;39763;51.188;6.690;2022-09-27T06:54:56;99467.09;;;12.47;74.25
53858;BME280;39763;51.188;6.690;2022-09-27T06:56:28;99473.97;;;12.49;75.31
53858;BME280;39763;51.188;6.690;2022-09-27T06:58:00;99477.25;;;12.53;74.53
53858;BME280;39763;51.188;6.690;2022-09-27T07:00:26;99480.25;;;12.47;74.30
53858;BME280;39763;51.188;6.690;2022-09-27T07:02:25;99480.47;;;12.44;74.49
53858;BME280;39763;51.188;6.690;2022-09-27T07:04:20;99486.50;;;12.46;74.93
53858;BME280;39763;51.188;6.690;2022-09-27T07:06:20;99482.72;;;12.50;74.56
53858;BME280;39763;51.188;6.690;2022-09-27T07:08:02;99487.53;;;12.57;74.46
53858;BME280;39763;51.188;6.690;2022-09-27T07:09:34;99482.94;;;12.61;74.72
53858;BME280;39763;51.188;6.690;2022-09-27T07:11:09;99491.94;;;12.57;74.00
53858;BME280;39763;51.188;6.690;2022-09-27T07:12:40;99489.41;;;12.55;73.60
53858;BME280;39763;51.188;6.690;2022-09-27T07:14:13;99496.72;;;12.50;73.81
53858;BME280;39763;51.188;6.690;2022-09-27T07:15:47;99489.50;;;12.54;74.33
53858;BME280;39763;51.188;6.690;2022-09-27T07:17:19;99496.72;;;12.50;74.19
53858;BME280;39763;51.188;6.690;2022-09-27T07:18:54;99496.06;;;12.47;73.19
53858;BME280;39763;51.188;6.690;2022-09-27T07:20:25;99501.31;;;12.47;73.35
53858;BME280;39763;51.188;6.690;2022-09-27T07:21:57;99500.13;;;12.52;74.59
53858;BME280;39763;51.188;6.690;2022-09-27T07:23:28;99506.06;;;12.56;74.52
53858;BME280;39763;51.188;6.690;2022-09-27T07:25:01;99500.50;;;12.60;74.57
53858;BME280;39763;51.188;6.690;2022-09-27T07:26:33;99501.16;;;12.64;74.64
53858;BME280;39763;51.188;6.690;2022-09-27T07:28:06;99511.41;;;12.68;74.37
53858;BME280;39763;51.188;6.690;2022-09-27T07:29:38;99507.00;;;12.69;73.71
53858;BME280;39763;51.188;6.690;2022-09-27T07:31:10;99505.66;;;12.62;73.53
53858;BME280;39763;51.188;6.690;2022-09-27T07:32:43;99509.13;;;12.48;72.49
53858;BME280;39763;51.188;6.690;2022-09-27T07:34:17;99506.81;;;12.44;73.29
53858;BME280;39763;51.188;6.690;2022-09-27T07:35:49;99512.69;;;12.47;74.16
53858;BME280;39763;51.188;6.690;2022-09-27T07:37:21;99513.47;;;12.49;74.00
53858;BME280;39763;51.188;6.690;2022-09-27T07:38:52;99503.22;;;12.45;74.03
53858;BME280;39763;51.188;6.690;2022-09-27T07:40:25;99507.44;;;12.47;74.32
53858;BME280;39763;51.188;6.690;2022-09-27T07:41:57;99498.34;;;12.53;74.73
53858;BME280;39763;51.188;6.690;2022-09-27T07:43:29;99508.59;;;12.57;74.16
53858;BME280;39763;51.188;6.690;2022-09-27T07:45:00;99509.91;;;12.64;73.59
53858;BME280;39763;51.188;6.690;2022-09-27T07:46:54;99507.75;;;12.71;73.69
53858;BME280;39763;51.188;6.690;2022-09-27T07:48:28;99512.09;;;12.72;73.85
53858;BME280;39763;51.188;6.690;2022-09-27T07:50:13;99510.38;;;12.71;72.91
53858;BME280;39763;51.188;6.690;2022-09-27T07:52:01;99512.63;;;12.77;73.71
53858;BME280;39763;51.188;6.690;2022-09-27T07:53:51;99519.22;;;12.84;73.85
53858;BME280;39763;51.188;6.690;2022-09-27T07:55:41;99524.84;;;12.92;73.49
53858;BME280;39763;51.188;6.690;2022-09-27T07:57:20;99526.38;;;12.96;72.92
53858;BME280;39763;51.188;6.690;2022-09-27T07:58:55;99531.28;;;13.02;72.75
53858;BME280;39763;51.188;6.690;2022-09-27T08:00:27;99535.97;;;13.12;73.33
53858;BME280;39763;51.188;6.690;2022-09-27T08:01:58;99527.22;;;13.11;72.20
53858;BME280;39763;51.188;6.690;2022-09-27T08:03:30;99539.53;;;13.11;72.21
53858;BME280;39763;51.188;6.690;2022-09-27T08:05:02;99536.34;;;12.91;71.35
53858;BME280;39763;51.188;6.690;2022-09-27T08:06:36;99536.34;;;12.91;71.77
53858;BME280;39763;51.188;6.690;2022-09-27T08:08:08;99543.44;;;12.91;72.14
53858;BME280;39763;51.188;6.690;2022-09-27T08:09:39;99534.28;;;12.96;72.25
53858;BME280;39763;51.188;6.690;2022-09-27T08:11:11;99538.34;;;13.02;71.74
53858;BME280;39763;51.188;6.690;2022-09-27T08:12:45;99536.91;;;13.11;72.02
53858;BME280;39763;51.188;6.690;2022-09-27T08:14:17;99540.69;;;13.21;71.10
53858;BME280;39763;51.188;6.690;2022-09-27T08:15:51;99545.00;;;13.22;71.45
53858;BME280;39763;51.188;6.690;2022-09-27T08:17:24;99553.69;;;13.24;71.37
53858;BME280;39763;51.188;6.690;2022-09-27T08:19:08;99549.91;;;13.28;71.47
53858;BME280;39763;51.188;6.690;2022-09-27T08:20:56;99543.31;;;13.35;71.98
53858;BME280;39763;51.188;6.690;2022-09-27T08:22:33;99547.34;;;13.40;71.21
53858;BME280;39763;51.188;6.690;2022-09-27T08:24:19;99552.91;;;13.50;70.70
53858;BME280;39763;51.188;6.690;2022-09-27T08:26:17;99552.69;;;13.53;70.33
53858;BME280;39763;51.188;6.690;2022-09-27T08:28:04;99560.13;;;13.61;70.39
53858;BME280;39763;51.188;6.690;2022-09-27T08:29:58;99563.09;;;13.69;69.86
53858;BME280;39763;51.188;6.690;2022-09-27T08:31:30;99552.53;;;13.69;69.47
53858;BME280;39763;51.188;6.690;2022-09-27T08:33:02;99566.50;;;13.71;69.75
53858;BME280;39763;51.188;6.690;2022-09-27T08:34:34;99562.06;;;13.71;69.62
53858;BME280;39763;51.188;6.690;2022-09-27T08:36:09;99566.59;;;13.69;69.24
53858;BME280;39763;51.188;6.690;2022-09-27T08:37:42;99554.25;;;13.70;69.61
53858;BME280;39763;51.188;6.690;2022-09-27T08:39:14;99562.06;;;13.71;69.47
53858;BME280;39763;51.188;6.690;2022-09-27T08:40:52;99563.56;;;13.75;69.71